Time,TemperatureF,DewpointF,PressureIn,WindDirection,WindDirectionDegrees,WindSpeedMPH,WindSpeedGustMPH,Humidity,HourlyPrecipIn,Conditions,Clouds,dailyrainin,SoftwareType,DateUTC
2013-11-08 00:08:00,51.4,47.0,30.07,SSE,159,0.0,-999.0,85,-99.99,,,0.00,weatherlink.com 1.10,2013-11-08 08:08:00,
2013-11-08 00:23:00,51.1,47.0,30.07,SSE,159,0.0,-999.0,86,-99.99,,,0.00,weatherlink.com 1.10,2013-11-08 08:23:00,
2013-11-08 00:38:00,51.3,48.0,30.07,SSE,159,0.0,-999.0,87,-99.99,,,0.00,weatherlink.com 1.10,2013-11-08 08:38:00,
2013-11-08 00:53:00,51.0,48.0,30.07,SSE,159,0.0,-999.0,88,-99.99,,,0.00,weatherlink.com 1.10,2013-11-08 08:53:00,
2013-11-08 01:08:00,50.7,47.0,30.07,SSE,159,0.0,-999.0,88,-99.99,,,0.00,weatherlink.com 1.10,2013-11-08 09:08:00,
2013-11-08 01:23:00,50.2,47.0,30.07,SSE,159,0.0,-999.0,89,-99.99,,,0.00,weatherlink.com 1.10,2013-11-08 09:23:00,
2013-11-08 01:38:00,50.2,47.0,30.07,SSE,159,0.0,-999.0,90,-99.99,,,0.00,weatherlink.com 1.10,2013-11-08 09:38:00,
2013-11-08 01:53:00,50.2,47.0,30.07,SSE,159,0.0,-999.0,90,-99.99,,,0.00,weatherlink.com 1.10,2013-11-08 09:53:00,
2013-11-08 02:08:00,49.9,47.0,30.07,SSE,159,0.0,-999.0,90,-99.99,,,0.00,weatherlink.com 1.10,2013-11-08 10:08:00,
2013-11-08 02:23:00,49.6,47.0,30.07,SSE,159,0.0,-999.0,91,-99.99,,,0.00,weatherlink.com 1.10,2013-11-08 10:23:00,
2013-11-08 02:38:00,49.5,47.0,30.07,SSE,159,0.0,-999.0,91,-99.99,,,0.00,weatherlink.com 1.10,2013-11-08 10:38:00,
2013-11-08 02:53:00,49.1,47.0,30.06,SSE,159,0.0,-999.0,91,-99.99,,,0.00,weatherlink.com 1.10,2013-11-08 10:53:00,
2013-11-08 03:08:00,48.9,46.0,30.06,SSE,159,0.0,-999.0,91,-99.99,,,0.00,weatherlink.com 1.10,2013-11-08 11:08:00,
2013-11-08 03:23:00,48.8,47.0,30.06,SSE,159,0.0,-999.0,92,-99.99,,,0.00,weatherlink.com 1.10,2013-11-08 11:23:00,
2013-11-08 03:38:00,48.5,46.0,30.06,SSE,159,0.0,-999.0,92,-99.99,,,0.00,weatherlink.com 1.10,2013-11-08 11:38:00,
2013-11-08 03:53:00,48.6,46.0,30.06,SSE,159,0.0,-999.0,92,-99.99,,,0.00,weatherlink.com 1.10,2013-11-08 11:53:00,
2013-11-08 04:08:00,49.4,48.0,30.06,SSE,159,0.0,-999.0,93,-99.99,,,0.00,weatherlink.com 1.10,2013-11-08 12:08:00,
2013-11-08 04:23:00,49.9,48.0,30.05,SSE,159,0.0,-999.0,93,-99.99,,,0.00,weatherlink.com 1.10,2013-11-08 12:23:00,
2013-11-08 04:38:00,50.2,48.0,30.05,SSE,159,0.0,-999.0,93,-99.99,,,0.00,weatherlink.com 1.10,2013-11-08 12:38:00,
2013-11-08 04:53:00,50.2,48.0,30.05,SSE,159,0.0,-999.0,93,-99.99,,,0.00,weatherlink.com 1.10,2013-11-08 12:53:00,
2013-11-08 05:08:00,49.5,48.0,30.05,SSE,159,0.0,-999.0,93,-99.99,,,0.00,weatherlink.com 1.10,2013-11-08 13:08:00,
2013-11-08 05:23:00,48.8,47.0,30.05,SSE,159,0.0,-999.0,93,-99.99,,,0.00,weatherlink.com 1.10,2013-11-08 13:23:00,
2013-11-08 05:38:00,48.2,46.0,30.04,SSE,159,0.0,-999.0,93,-99.99,,,0.00,weatherlink.com 1.10,2013-11-08 13:38:00,
2013-11-08 05:53:00,47.6,46.0,30.05,SSE,159,0.0,-999.0,93,-99.99,,,0.00,weatherlink.com 1.10,2013-11-08 13:53:00,
2013-11-08 06:08:00,47.0,45.0,30.05,SSE,159,0.0,-999.0,93,-99.99,,,0.00,weatherlink.com 1.10,2013-11-08 14:08:00,
2013-11-08 06:23:00,46.7,45.0,30.05,SSE,159,0.0,-999.0,93,-99.99,,,0.00,weatherlink.com 1.10,2013-11-08 14:23:00,
2013-11-08 06:38:00,46.4,45.0,30.05,SSE,159,0.0,-999.0,93,-99.99,,,0.00,weatherlink.com 1.10,2013-11-08 14:38:00,
2013-11-08 06:53:00,46.2,44.0,30.05,SSE,159,0.0,-999.0,93,-99.99,,,0.00,weatherlink.com 1.10,2013-11-08 14:53:00,
2013-11-08 07:09:00,46.1,45.0,30.05,SSE,159,0.0,-999.0,94,-99.99,,,0.00,weatherlink.com 1.10,2013-11-08 15:09:00,
2013-11-08 07:23:00,46.2,45.0,30.06,SSE,159,0.0,-999.0,94,-99.99,,,0.00,weatherlink.com 1.10,2013-11-08 15:23:00,
2013-11-08 07:39:00,47.0,45.0,30.06,SSE,159,0.0,-999.0,94,-99.99,,,0.00,weatherlink.com 1.10,2013-11-08 15:39:00,
2013-11-08 07:54:00,48.0,47.0,30.06,SSE,159,0.0,-999.0,95,-99.99,,,0.00,weatherlink.com 1.10,2013-11-08 15:54:00,
2013-11-08 08:09:00,49.5,48.0,30.06,SSE,159,0.0,-999.0,96,-99.99,,,0.00,weatherlink.com 1.10,2013-11-08 16:09:00,
2013-11-08 08:24:00,51.1,50.0,30.06,SSE,159,0.0,-999.0,96,-99.99,,,0.00,weatherlink.com 1.10,2013-11-08 16:24:00,
2013-11-08 08:39:00,53.2,52.0,30.06,SSE,159,0.0,-999.0,96,-99.99,,,0.00,weatherlink.com 1.10,2013-11-08 16:39:00,
2013-11-08 08:54:00,54.2,53.0,30.07,SSE,159,0.0,-999.0,95,-99.99,,,0.00,weatherlink.com 1.10,2013-11-08 16:54:00,
2013-11-08 09:09:00,55.7,53.0,30.07,SSE,159,0.0,-999.0,91,-99.99,,,0.00,weatherlink.com 1.10,2013-11-08 17:09:00,
2013-11-08 09:24:00,57.5,53.0,30.07,SSE,161,0.0,-999.0,86,-99.99,,,0.00,weatherlink.com 1.10,2013-11-08 17:24:00,
2013-11-08 09:39:00,59.3,52.0,30.07,South,186,0.0,-999.0,78,-99.99,,,0.00,weatherlink.com 1.10,2013-11-08 17:39:00,
2013-11-08 09:54:00,60.5,52.0,30.07,SSW,194,0.0,-999.0,74,-99.99,,,0.00,weatherlink.com 1.10,2013-11-08 17:54:00,
2013-11-08 10:09:00,62.0,52.0,30.06,SSW,194,0.0,-999.0,71,-99.99,,,0.00,weatherlink.com 1.10,2013-11-08 18:09:00,
2013-11-08 10:24:00,62.6,52.0,30.06,SSW,211,0.0,-999.0,69,-99.99,,,0.00,weatherlink.com 1.10,2013-11-08 18:24:00,
2013-11-08 10:39:00,63.9,52.0,30.06,SSW,211,1.0,-999.0,66,-99.99,,,0.00,weatherlink.com 1.10,2013-11-08 18:39:00,
2013-11-08 10:54:00,65.3,53.0,30.06,SSW,211,0.0,-999.0,64,-99.99,,,0.00,weatherlink.com 1.10,2013-11-08 18:54:00,
2013-11-08 11:09:00,66.4,53.0,30.05,SW,214,0.0,-999.0,63,-99.99,,,0.00,weatherlink.com 1.10,2013-11-08 19:09:00,
2013-11-08 11:24:00,67.4,53.0,30.04,SW,214,0.0,-999.0,60,-99.99,,,0.00,weatherlink.com 1.10,2013-11-08 19:24:00,
2013-11-08 11:39:00,68.1,53.0,30.04,SSE,156,0.0,-999.0,59,-99.99,,,0.00,weatherlink.com 1.10,2013-11-08 19:39:00,
2013-11-08 11:54:00,68.9,53.0,30.03,SW,214,0.0,-999.0,57,-99.99,,,0.00,weatherlink.com 1.10,2013-11-08 19:54:00,
2013-11-08 12:09:00,70.3,53.0,30.02,SW,214,2.0,-999.0,54,-99.99,,,0.00,weatherlink.com 1.10,2013-11-08 20:09:00,
2013-11-08 12:25:00,70.6,52.0,30.01,SW,220,0.0,-999.0,52,-99.99,,,0.00,weatherlink.com 1.10,2013-11-08 20:25:00,
2013-11-08 12:40:00,71.5,51.0,30.01,WNW,297,0.0,-999.0,49,-99.99,,,0.00,weatherlink.com 1.10,2013-11-08 20:40:00,
2013-11-08 12:55:00,71.5,52.0,30.00,South,182,1.0,-999.0,50,-99.99,,,0.00,weatherlink.com 1.10,2013-11-08 20:55:00,
2013-11-08 13:10:00,70.6,52.0,30.00,SW,220,0.0,-999.0,53,-99.99,,,0.00,weatherlink.com 1.10,2013-11-08 21:10:00,
2013-11-08 13:25:00,69.9,51.0,29.99,WSW,237,0.0,-999.0,51,-99.99,,,0.00,weatherlink.com 1.10,2013-11-08 21:25:00,
2013-11-08 13:40:00,70.3,51.0,29.99,SW,232,0.0,-999.0,51,-99.99,,,0.00,weatherlink.com 1.10,2013-11-08 21:40:00,
2013-11-08 13:55:00,68.8,51.0,29.98,SW,232,0.0,-999.0,54,-99.99,,,0.00,weatherlink.com 1.10,2013-11-08 21:55:00,
2013-11-08 14:10:00,68.6,51.0,29.98,SSW,210,0.0,-999.0,53,-99.99,,,0.00,weatherlink.com 1.10,2013-11-08 22:10:00,
2013-11-08 14:24:00,68.6,49.0,29.98,SW,221,0.0,-999.0,50,-99.99,,,0.00,weatherlink.com 1.10,2013-11-08 22:24:00,
2013-11-08 14:40:00,69.3,50.0,29.98,SW,221,0.0,-999.0,51,-99.99,,,0.00,weatherlink.com 1.10,2013-11-08 22:40:00,
2013-11-08 14:55:00,70.4,50.0,29.97,SSW,213,0.0,-999.0,49,-99.99,,,0.00,weatherlink.com 1.10,2013-11-08 22:55:00,
2013-11-08 15:10:00,70.9,49.0,29.97,SSW,213,0.0,-999.0,46,-99.99,,,0.00,weatherlink.com 1.10,2013-11-08 23:10:00,
2013-11-08 15:40:00,71.3,51.0,29.96,SSW,213,0.0,-999.0,49,-99.99,,,0.00,weatherlink.com 1.10,2013-11-08 23:40:00,
2013-11-08 15:55:00,71.5,50.0,29.96,SSW,213,0.0,-999.0,47,-99.99,,,0.00,weatherlink.com 1.10,2013-11-08 23:55:00,
2013-11-08 16:12:00,70.9,50.0,29.96,SSW,213,0.0,-999.0,47,-99.99,,,0.00,weatherlink.com 1.10,2013-11-09 00:12:00,
2013-11-08 16:26:00,69.8,49.0,29.95,SSW,213,0.0,-999.0,47,-99.99,,,0.00,weatherlink.com 1.10,2013-11-09 00:26:00,
2013-11-08 16:41:00,68.3,51.0,29.95,SSW,213,0.0,-999.0,54,-99.99,,,0.00,weatherlink.com 1.10,2013-11-09 00:41:00,
2013-11-08 16:56:00,66.6,50.0,29.95,SSW,213,0.0,-999.0,55,-99.99,,,0.00,weatherlink.com 1.10,2013-11-09 00:56:00,
2013-11-08 17:12:00,64.7,49.0,29.95,SSW,213,0.0,-999.0,57,-99.99,,,0.00,weatherlink.com 1.10,2013-11-09 01:12:00,
2013-11-08 17:26:00,63.2,48.0,29.95,SSW,213,0.0,-999.0,58,-99.99,,,0.00,weatherlink.com 1.10,2013-11-09 01:26:00,
2013-11-08 17:41:00,61.5,48.0,29.95,SSW,213,0.0,-999.0,61,-99.99,,,0.00,weatherlink.com 1.10,2013-11-09 01:41:00,
2013-11-08 17:56:00,60.2,48.0,29.95,SSW,213,0.0,-999.0,64,-99.99,,,0.00,weatherlink.com 1.10,2013-11-09 01:56:00,
2013-11-08 18:12:00,59.2,48.0,29.96,SSW,213,0.0,-999.0,67,-99.99,,,0.00,weatherlink.com 1.10,2013-11-09 02:12:00,
2013-11-08 18:26:00,58.1,48.0,29.96,SW,214,0.0,-999.0,68,-99.99,,,0.00,weatherlink.com 1.10,2013-11-09 02:26:00,
2013-11-08 18:41:00,57.2,47.0,29.96,SW,214,0.0,-999.0,70,-99.99,,,0.00,weatherlink.com 1.10,2013-11-09 02:41:00,
2013-11-08 18:56:00,56.3,47.0,29.96,SW,214,0.0,-999.0,72,-99.99,,,0.00,weatherlink.com 1.10,2013-11-09 02:56:00,
2013-11-08 19:12:00,55.9,47.0,29.96,SW,214,0.0,-999.0,72,-99.99,,,0.00,weatherlink.com 1.10,2013-11-09 03:12:00,
2013-11-08 19:26:00,55.6,47.0,29.96,SW,214,0.0,-999.0,73,-99.99,,,0.00,weatherlink.com 1.10,2013-11-09 03:26:00,
2013-11-08 19:41:00,55.3,48.0,29.96,SW,214,0.0,-999.0,76,-99.99,,,0.00,weatherlink.com 1.10,2013-11-09 03:41:00,
2013-11-08 19:56:00,54.5,47.0,29.96,SW,214,0.0,-999.0,77,-99.99,,,0.00,weatherlink.com 1.10,2013-11-09 03:56:00,
2013-11-08 20:11:00,53.8,47.0,29.96,SW,214,0.0,-999.0,78,-99.99,,,0.00,weatherlink.com 1.10,2013-11-09 04:11:00,
2013-11-08 20:26:00,53.2,47.0,29.97,SW,214,0.0,-999.0,79,-99.99,,,0.00,weatherlink.com 1.10,2013-11-09 04:26:00,
2013-11-08 20:41:00,52.8,47.0,29.97,SW,214,0.0,-999.0,80,-99.99,,,0.00,weatherlink.com 1.10,2013-11-09 04:41:00,
2013-11-08 20:56:00,52.3,47.0,29.97,SW,214,0.0,-999.0,81,-99.99,,,0.00,weatherlink.com 1.10,2013-11-09 04:56:00,
2013-11-08 21:11:00,52.0,47.0,29.98,SW,214,0.0,-999.0,82,-99.99,,,0.00,weatherlink.com 1.10,2013-11-09 05:11:00,
2013-11-08 21:26:00,52.8,47.0,29.98,SW,216,0.0,-999.0,81,-99.99,,,0.00,weatherlink.com 1.10,2013-11-09 05:26:00,
2013-11-08 21:41:00,52.8,47.0,29.99,South,190,0.0,-999.0,81,-99.99,,,0.00,weatherlink.com 1.10,2013-11-09 05:41:00,
2013-11-08 21:57:00,52.3,47.0,29.99,South,190,0.0,-999.0,81,-99.99,,,0.00,weatherlink.com 1.10,2013-11-09 05:57:00,
2013-11-08 22:12:00,51.7,46.0,29.98,South,190,0.0,-999.0,82,-99.99,,,0.00,weatherlink.com 1.10,2013-11-09 06:12:00,
2013-11-08 22:27:00,51.4,46.0,29.99,South,190,0.0,-999.0,83,-99.99,,,0.00,weatherlink.com 1.10,2013-11-09 06:27:00,
2013-11-08 22:42:00,51.3,47.0,29.98,South,190,0.0,-999.0,85,-99.99,,,0.00,weatherlink.com 1.10,2013-11-09 06:42:00,
2013-11-08 22:57:00,51.0,47.0,29.98,South,190,0.0,-999.0,85,-99.99,,,0.00,weatherlink.com 1.10,2013-11-09 06:57:00,
2013-11-08 23:12:00,50.4,46.0,29.98,South,190,0.0,-999.0,85,-99.99,,,0.00,weatherlink.com 1.10,2013-11-09 07:12:00,
2013-11-08 23:27:00,49.8,46.0,29.98,South,190,0.0,-999.0,86,-99.99,,,0.00,weatherlink.com 1.10,2013-11-09 07:27:00,
2013-11-08 23:42:00,49.4,46.0,29.98,South,190,0.0,-999.0,87,-99.99,,,0.00,weatherlink.com 1.10,2013-11-09 07:42:00,
2013-11-08 23:57:00,49.1,45.0,29.98,South,190,0.0,-999.0,87,-99.99,,,0.00,weatherlink.com 1.10,2013-11-09 07:57:00,